Time;durP1;ratioP1;P1;durP2;ratioP2;P2;SDS_P1;SDS_P2;PMS_P1;PMS_P2;Temp;Humidity;BMP_temperature;BMP_pressure;BME280_temperature;BME280_humidity;BME280_pressure;Samples;Min_cycle;Max_cycle;Signal;HPM_P1;HPM_P2
2023/06/22 00:01:51;;;;;;;9.17;5.50;;;;;;;23.93;55.35;101337.47;5048748;28;20376;-74
2023/06/22 00:04:17;;;;;;;10.23;5.87;;;;;;;23.86;55.40;101329.53;5069098;28;20387;-75
2023/06/22 00:06:43;;;;;;;7.47;5.05;;;;;;;23.75;55.73;101333.91;5070610;28;20390;-75
2023/06/22 00:09:10;;;;;;;10.17;5.53;;;;;;;23.70;55.70;101344.66;5069593;28;20421;-74
2023/06/22 00:11:36;;;;;;;10.27;6.00;;;;;;;23.66;55.79;101343.50;5069862;28;20479;-74
2023/06/22 00:14:02;;;;;;;9.77;5.93;;;;;;;23.58;55.86;101349.28;5052302;28;20707;-74
2023/06/22 00:16:27;;;;;;;9.60;5.68;;;;;;;23.59;55.81;101332.00;5069671;28;20385;-74
2023/06/22 00:18:53;;;;;;;10.50;6.00;;;;;;;23.72;55.06;101328.97;5069636;28;20740;-74
2023/06/22 00:21:20;;;;;;;10.55;5.72;;;;;;;23.59;55.43;101329.28;5070217;28;20372;-75
2023/06/22 00:23:46;;;;;;;8.43;5.40;;;;;;;23.56;55.59;101327.06;5069315;28;20903;-75
2023/06/22 00:26:11;;;;;;;9.77;5.90;;;;;;;23.71;54.92;101321.91;5069944;28;20383;-75
2023/06/22 00:28:37;;;;;;;8.70;5.73;;;;;;;23.79;54.86;101332.34;5071370;28;20874;-75
2023/06/22 00:31:02;;;;;;;10.80;5.97;;;;;;;23.57;55.54;101353.03;5071161;28;20436;-75
2023/06/22 00:33:28;;;;;;;8.90;5.97;;;;;;;23.65;55.08;101358.06;5071319;28;20375;-76
2023/06/22 00:35:54;;;;;;;9.88;6.05;;;;;;;23.65;55.29;101358.06;5070999;28;20371;-75
2023/06/22 00:38:19;;;;;;;11.40;6.40;;;;;;;23.64;55.38;101373.50;5069573;28;20508;-75
2023/06/22 00:40:45;;;;;;;9.93;6.10;;;;;;;23.57;55.60;101367.41;5070035;28;20908;-75
2023/06/22 00:43:10;;;;;;;9.40;5.83;;;;;;;23.54;55.61;101364.38;5069354;28;20378;-75
2023/06/22 00:45:36;;;;;;;10.87;5.70;;;;;;;23.59;55.52;101365.28;5069404;28;20407;-75
2023/06/22 00:48:02;;;;;;;9.45;5.85;;;;;;;23.48;55.43;101369.66;5069775;28;20371;-75
2023/06/22 00:50:33;;;;;;;10.95;5.93;;;;;;;23.34;55.68;101378.31;5069039;28;20421;-74
2023/06/22 00:53:07;;;;;;;8.48;5.60;;;;;;;23.25;56.31;101383.25;5050615;28;20406;-75
2023/06/22 00:55:37;;;;;;;9.77;5.78;;;;;;;23.34;55.77;101381.84;5068868;28;20886;-75
2023/06/22 00:58:05;;;;;;;11.15;5.80;;;;;;;23.38;55.68;101385.69;5069140;28;20378;-75
2023/06/22 01:00:32;;;;;;;12.30;5.72;;;;;;;23.20;56.20;101385.84;5042305;28;20870;-75
2023/06/22 01:02:58;;;;;;;8.55;5.82;;;;;;;23.08;56.86;101392.13;5032480;28;20398;-75
2023/06/22 01:05:24;;;;;;;10.13;6.10;;;;;;;22.87;57.68;101381.88;5031974;28;21455;-75
2023/06/22 01:07:54;;;;;;;11.23;6.40;;;;;;;22.89;57.49;101379.75;5031931;28;20489;-75
2023/06/22 01:10:44;;;;;;;9.07;6.10;;;;;;;22.86;57.94;101366.69;5027924;28;20393;-75
2023/06/22 01:13:37;;;;;;;10.57;6.63;;;;;;;23.06;56.97;101367.16;5054728;28;20403;-75
2023/06/22 01:16:12;;;;;;;11.83;6.60;;;;;;;23.14;56.85;101374.09;5057345;28;20524;-75
2023/06/22 01:18:42;;;;;;;11.23;6.27;;;;;;;23.21;56.71;101369.41;5066806;28;20410;-75
2023/06/22 01:21:10;;;;;;;9.90;6.32;;;;;;;23.16;56.59;101366.56;5066545;28;20540;-75
2023/06/22 01:24:08;;;;;;;13.38;6.78;;;;;;;23.14;57.00;101363.28;5067628;28;20457;-75
2023/06/22 01:26:38;;;;;;;11.32;7.10;;;;;;;23.19;56.84;101359.84;5048118;28;20370;-75
2023/06/22 01:29:05;;;;;;;10.25;6.50;;;;;;;23.19;56.87;101358.00;5028117;28;20425;-75
2023/06/22 01:31:34;;;;;;;10.02;6.75;;;;;;;23.20;56.43;101354.22;5028121;28;20466;-75
2023/06/22 01:34:03;;;;;;;10.35;6.40;;;;;;;23.32;56.28;101373.13;5011041;28;20431;-75
2023/06/22 01:36:30;;;;;;;10.32;6.55;;;;;;;23.36;56.09;101362.66;5027082;28;20896;-75
2023/06/22 01:38:57;;;;;;;9.25;7.15;;;;;;;23.36;56.16;101359.94;5028169;28;20378;-75
2023/06/22 01:41:27;;;;;;;11.25;7.07;;;;;;;23.34;56.44;101364.78;5028308;28;20712;-75
2023/06/22 01:43:54;;;;;;;14.57;7.60;;;;;;;23.22;57.19;101367.50;5027906;28;20375;-75
2023/06/22 01:46:21;;;;;;;13.38;7.65;;;;;;;23.07;58.02;101368.00;5027801;28;20847;-75
2023/06/22 01:48:48;;;;;;;10.65;7.20;;;;;;;23.01;58.07;101360.78;5027567;28;20382;-74
2023/06/22 01:51:14;;;;;;;10.68;7.10;;;;;;;22.94;58.43;101370.91;5027823;28;20386;-75
2023/06/22 01:53:39;;;;;;;10.93;7.13;;;;;;;22.95;58.26;101367.16;5027091;28;20382;-75
2023/06/22 01:56:05;;;;;;;11.07;7.35;;;;;;;23.04;58.11;101380.09;5027398;28;20397;-75
2023/06/22 01:58:32;;;;;;;10.93;6.93;;;;;;;23.01;57.85;101385.13;5027673;28;20382;-75
2023/06/22 02:01:09;;;;;;;11.93;7.18;;;;;;;22.90;58.56;101390.34;5027876;28;20390;-75
2023/06/22 02:03:41;;;;;;;12.93;6.90;;;;;;;22.77;58.61;101395.16;5027024;28;20371;-75
2023/06/22 02:06:10;;;;;;;12.35;6.85;;;;;;;22.65;58.95;101400.53;5027595;28;20382;-75
2023/06/22 02:08:47;;;;;;;10.90;7.00;;;;;;;22.55;59.22;101400.31;5028165;28;20466;-75
2023/06/22 02:11:15;;;;;;;13.13;6.65;;;;;;;22.38;59.46;101417.16;5027093;28;20378;-74
2023/06/22 02:13:42;;;;;;;10.60;6.88;;;;;;;22.38;59.28;101403.66;5027764;28;20401;-75
2023/06/22 02:16:12;;;;;;;11.30;6.90;;;;;;;22.30;59.57;101410.22;5027719;28;20371;-74
2023/06/22 02:18:40;;;;;;;11.02;6.93;;;;;;;22.29;59.55;101405.91;5026737;28;20478;-75
2023/06/22 02:21:06;;;;;;;12.32;6.88;;;;;;;22.40;59.06;101403.44;5027196;28;20393;-75
2023/06/22 02:23:35;;;;;;;11.95;7.32;;;;;;;22.40;58.69;101403.44;5027552;28;20383;-75
2023/06/22 02:26:02;;;;;;;13.50;7.32;;;;;;;22.42;58.79;101417.53;5026764;28;20383;-74
2023/06/22 02:28:28;;;;;;;12.32;7.40;;;;;;;22.44;58.61;101407.34;5027267;28;20475;-75
2023/06/22 02:30:53;;;;;;;13.52;8.32;;;;;;;22.47;59.00;101415.81;5027080;28;20382;-75
2023/06/22 02:33:19;;;;;;;16.10;8.80;;;;;;;22.46;58.76;101414.13;5027223;28;21116;-74
2023/06/22 02:35:47;;;;;;;17.13;10.02;;;;;;;22.43;59.10;101408.38;5026952;28;20393;-75
2023/06/22 02:38:14;;;;;;;15.30;9.35;;;;;;;22.33;59.55;101411.66;5025796;28;20390;-74
2023/06/22 02:40:39;;;;;;;19.33;10.52;;;;;;;22.28;59.87;101415.03;5043296;28;20403;-74
2023/06/22 02:43:05;;;;;;;19.15;10.70;;;;;;;22.22;60.35;101423.19;5046036;28;20373;-74
2023/06/22 02:45:30;;;;;;;16.50;10.20;;;;;;;22.19;60.58;101420.97;5046592;28;21232;-74
2023/06/22 02:47:56;;;;;;;19.93;9.93;;;;;;;22.20;60.43;101414.50;5047060;28;20373;-74
2023/06/22 02:50:22;;;;;;;20.25;11.18;;;;;;;22.21;60.54;101421.56;5046485;28;20529;-74
2023/06/22 02:52:47;;;;;;;18.60;11.97;;;;;;;22.09;61.00;101424.22;5045887;28;20427;-74
2023/06/22 02:55:13;;;;;;;21.95;12.32;;;;;;;22.06;60.83;101422.81;5047045;28;20860;-74
2023/06/22 02:57:43;;;;;;;24.10;12.50;;;;;;;22.10;60.94;101425.88;5046555;28;20372;-74
2023/06/22 03:00:17;;;;;;;18.58;12.65;;;;;;;22.09;60.98;101422.38;5046634;28;20372;-74
2023/06/22 03:02:44;;;;;;;17.23;12.30;;;;;;;22.15;60.96;101428.72;5047024;28;20373;-74
2023/06/22 03:05:13;;;;;;;16.77;13.27;;;;;;;22.10;61.33;101442.09;5047016;28;20471;-74
2023/06/22 03:07:40;;;;;;;18.77;14.07;;;;;;;22.02;61.14;101423.50;5047009;28;20419;-74
2023/06/22 03:10:06;;;;;;;22.45;15.52;;;;;;;21.96;61.52;101422.53;5046790;28;20762;-74
2023/06/22 03:12:32;;;;;;;18.88;13.65;;;;;;;21.94;61.83;101428.16;5046615;28;20965;-75
2023/06/22 03:14:58;;;;;;;22.87;16.83;;;;;;;21.93;62.00;101436.47;5046845;28;20377;-76
2023/06/22 03:17:23;;;;;;;36.38;27.50;;;;;;;21.99;61.54;101427.47;5046477;28;20907;-75
2023/06/22 03:19:48;;;;;;;30.40;23.03;;;;;;;22.20;61.27;101431.56;5046841;28;20430;-74
2023/06/22 03:22:14;;;;;;;30.47;23.27;;;;;;;22.33;60.82;101430.56;5046820;28;20376;-74
2023/06/22 03:24:40;;;;;;;23.85;17.20;;;;;;;22.35;60.78;101419.53;5046943;28;20406;-75
2023/06/22 03:27:06;;;;;;;24.55;19.25;;;;;;;22.48;60.59;101422.00;5047028;28;20377;-74
2023/06/22 03:29:31;;;;;;;22.83;15.07;;;;;;;22.52;60.51;101425.88;5046790;28;20384;-74
2023/06/22 03:31:57;;;;;;;22.10;16.17;;;;;;;22.51;60.40;101414.28;5046270;28;20436;-74
2023/06/22 03:34:22;;;;;;;30.33;16.52;;;;;;;22.62;60.52;101398.31;5029019;28;20387;-74
2023/06/22 03:36:47;;;;;;;28.77;18.90;;;;;;;22.83;60.36;101410.41;5047481;28;20381;-74
2023/06/22 03:39:13;;;;;;;23.43;15.10;;;;;;;22.89;59.63;101410.31;5049656;28;20400;-75
2023/06/22 03:41:38;;;;;;;17.38;13.02;;;;;;;22.90;59.86;101413.81;5051188;28;20453;-76
2023/06/22 03:44:04;;;;;;;18.23;11.73;;;;;;;22.99;59.44;101422.41;5032936;28;20401;-75
2023/06/22 03:46:29;;;;;;;15.33;10.83;;;;;;;22.96;59.43;101412.91;5050753;28;20386;-75
2023/06/22 03:48:55;;;;;;;16.48;10.38;;;;;;;23.08;59.26;101418.31;5050751;28;20903;-75
2023/06/22 03:51:21;;;;;;;20.10;10.80;;;;;;;23.27;58.72;101414.41;5050405;28;20415;-75
2023/06/22 03:53:47;;;;;;;18.55;10.70;;;;;;;23.19;58.86;101416.66;5051132;28;20377;-75
2023/06/22 03:56:19;;;;;;;13.50;9.70;;;;;;;23.13;58.77;101431.94;5050770;28;20376;-75
2023/06/22 03:58:45;;;;;;;16.85;10.07;;;;;;;23.15;58.79;101427.13;5050084;28;20376;-75
2023/06/22 04:01:11;;;;;;;15.47;9.50;;;;;;;23.05;59.06;101443.13;5058244;28;20401;-75
2023/06/22 04:03:37;;;;;;;15.98;9.55;;;;;;;23.00;59.25;101440.28;5069959;28;20487;-74
2023/06/22 04:06:03;;;;;;;15.82;9.10;;;;;;;23.01;59.16;101442.75;5069519;28;20371;-75
2023/06/22 04:08:28;;;;;;;19.55;10.02;;;;;;;23.09;58.59;101433.50;5070417;28;20905;-74
2023/06/22 04:10:54;;;;;;;15.27;8.90;;;;;;;23.06;58.15;101442.88;5069144;28;20985;-74
2023/06/22 04:13:19;;;;;;;15.57;8.90;;;;;;;22.95;58.52;101442.88;5070610;28;20485;-74
2023/06/22 04:15:45;;;;;;;14.47;9.27;;;;;;;22.90;58.37;101447.09;5070950;28;20871;-76
2023/06/22 04:18:10;;;;;;;17.52;8.98;;;;;;;22.98;58.09;101443.22;5070385;28;20879;-75
2023/06/22 04:20:36;;;;;;;13.67;8.70;;;;;;;23.05;57.87;101448.56;5070412;28;20371;-75
2023/06/22 04:23:01;;;;;;;13.80;8.90;;;;;;;22.90;58.14;101446.25;5070023;28;20759;-75
2023/06/22 04:25:27;;;;;;;13.33;8.63;;;;;;;22.91;58.61;101448.72;5070489;28;20444;-76
2023/06/22 04:27:53;;;;;;;14.70;8.67;;;;;;;22.79;58.81;101449.78;5070402;28;20511;-75
2023/06/22 04:30:18;;;;;;;14.32;8.73;;;;;;;22.75;58.97;101459.44;5069695;28;20475;-75
2023/06/22 04:33:02;;;;;;;12.82;8.43;;;;;;;22.65;59.64;101466.22;5069851;28;20407;-76
2023/06/22 04:35:28;;;;;;;13.45;8.73;;;;;;;22.56;60.05;101486.50;5037224;28;21301;-76
2023/06/22 04:37:55;;;;;;;17.23;9.53;;;;;;;22.42;60.45;101490.47;5033433;28;20391;-75
2023/06/22 04:40:23;;;;;;;17.25;8.60;;;;;;;22.19;61.72;101491.19;5033546;28;20399;-75
2023/06/22 04:42:52;;;;;;;14.48;8.25;;;;;;;22.00;62.57;101496.59;5028650;28;20405;-74
2023/06/22 04:45:18;;;;;;;19.08;9.05;;;;;;;21.99;62.87;101492.28;5027722;28;20454;-74
2023/06/22 04:47:45;;;;;;;14.95;9.20;;;;;;;22.15;62.52;101493.53;5028050;28;20469;-74
2023/06/22 04:50:11;;;;;;;21.80;9.65;;;;;;;22.12;62.42;101494.78;5026319;28;20394;-75
2023/06/22 04:52:37;;;;;;;15.98;9.25;;;;;;;22.06;63.12;101492.19;5046097;28;20450;-75
2023/06/22 04:55:03;;;;;;;25.15;10.68;;;;;;;22.14;62.88;101495.38;5048614;28;20725;-74
2023/06/22 04:57:32;;;;;;;19.23;10.13;;;;;;;22.25;62.54;101509.19;5048409;28;20388;-74
2023/06/22 05:00:14;;;;;;;16.43;9.87;;;;;;;22.31;62.63;101511.81;5049001;28;20886;-74
2023/06/22 05:02:40;;;;;;;19.58;10.00;;;;;;;22.46;62.23;101500.59;5050447;28;20373;-75
2023/06/22 05:05:06;;;;;;;20.58;10.20;;;;;;;22.62;61.63;101507.22;5047601;28;20377;-74
2023/06/22 05:07:36;;;;;;;22.95;10.05;;;;;;;22.87;60.72;101508.94;5048546;28;20475;-74
2023/06/22 05:10:02;;;;;;;21.00;10.25;;;;;;;22.87;61.05;101512.44;5049550;28;20373;-75
2023/06/22 05:12:29;;;;;;;17.17;10.38;;;;;;;22.86;61.16;101526.19;5048964;28;20540;-75
2023/06/22 05:14:55;;;;;;;17.77;10.27;;;;;;;22.91;60.99;101524.44;5049824;28;20373;-74
2023/06/22 05:17:20;;;;;;;14.93;10.63;;;;;;;23.07;60.75;101527.56;5049196;28;20419;-75
2023/06/22 05:19:49;;;;;;;16.17;10.27;;;;;;;23.12;60.61;101526.84;5049366;28;20372;-74
2023/06/22 05:22:15;;;;;;;15.07;9.98;;;;;;;23.13;60.26;101521.19;5048186;28;20369;-75
2023/06/22 05:24:40;;;;;;;16.33;10.35;;;;;;;23.13;60.60;101523.91;5048895;28;20372;-75
2023/06/22 05:27:06;;;;;;;16.10;10.17;;;;;;;23.20;60.27;101531.91;5047140;28;20396;-75
2023/06/22 05:29:32;;;;;;;16.42;10.30;;;;;;;23.16;60.75;101533.44;5047737;28;20372;-75
2023/06/22 05:31:57;;;;;;;12.83;10.20;;;;;;;23.14;60.97;101543.66;5047640;28;20397;-75
2023/06/22 05:34:23;;;;;;;15.50;10.30;;;;;;;23.07;61.97;101535.66;5047378;28;20380;-75
2023/06/22 05:36:48;;;;;;;17.10;11.10;;;;;;;23.17;61.75;101525.06;5047334;28;20372;-76
2023/06/22 05:39:14;;;;;;;18.37;11.10;;;;;;;23.24;62.03;101535.78;5044662;28;20380;-76
2023/06/22 05:41:40;;;;;;;15.68;11.73;;;;;;;23.26;62.38;101542.63;5047204;28;20790;-75
2023/06/22 05:44:06;;;;;;;15.57;11.23;;;;;;;23.60;61.26;101523.88;5046094;28;20933;-75
2023/06/22 05:46:32;;;;;;;16.40;12.60;;;;;;;23.80;60.76;101517.28;5046779;28;20726;-75
2023/06/22 05:48:57;;;;;;;16.23;12.25;;;;;;;23.99;60.24;101510.66;5046192;28;20399;-75
2023/06/22 05:51:23;;;;;;;14.33;11.23;;;;;;;24.18;59.66;101513.19;5047153;28;20742;-75
2023/06/22 05:53:49;;;;;;;14.87;11.47;;;;;;;24.31;59.49;101514.78;5030667;28;20853;-75
2023/06/22 05:56:18;;;;;;;14.90;12.18;;;;;;;24.48;59.01;101515.63;5048075;28;20383;-75
2023/06/22 05:58:43;;;;;;;15.82;11.05;;;;;;;24.54;57.92;101513.88;5047698;28;20728;-75
2023/06/22 06:01:09;;;;;;;12.77;10.73;;;;;;;24.48;57.55;101503.97;5048070;28;20865;-75
2023/06/22 06:03:40;;;;;;;16.85;10.60;;;;;;;24.65;56.90;101499.44;5046866;28;20745;-76
2023/06/22 06:06:06;;;;;;;14.77;10.93;;;;;;;24.87;56.50;101506.84;5046786;28;20450;-75
2023/06/22 06:08:32;;;;;;;11.90;10.10;;;;;;;25.08;55.72;101507.97;5047007;28;20385;-75
2023/06/22 06:10:57;;;;;;;18.57;10.63;;;;;;;25.13;55.25;101510.78;5046744;28;20396;-74
2023/06/22 06:13:23;;;;;;;11.00;9.43;;;;;;;25.19;54.55;101513.31;5046790;28;20396;-75
2023/06/22 06:15:51;;;;;;;11.75;9.77;;;;;;;25.44;54.15;101513.97;5047389;28;20508;-75
2023/06/22 06:18:16;;;;;;;21.07;12.10;;;;;;;25.66;53.80;101514.81;5047046;28;20434;-76
2023/06/22 06:20:42;;;;;;;15.20;9.48;;;;;;;26.10;52.28;101512.09;5048491;28;20389;-76
2023/06/22 06:23:08;;;;;;;15.93;9.20;;;;;;;25.93;51.79;101514.09;5049082;28;20392;-75
2023/06/22 06:25:33;;;;;;;12.13;9.25;;;;;;;26.12;51.49;101501.81;5050439;28;20377;-75
2023/06/22 06:27:59;;;;;;;12.43;9.40;;;;;;;26.07;51.68;101496.34;5051013;28;20387;-75
2023/06/22 06:30:24;;;;;;;11.37;9.70;;;;;;;26.34;51.10;101492.78;5050552;28;20530;-74
2023/06/22 06:32:50;;;;;;;12.73;9.40;;;;;;;26.51;50.75;101504.38;5051185;28;20405;-75
2023/06/22 06:35:16;;;;;;;12.57;9.32;;;;;;;26.68;49.64;101485.22;5050659;28;20380;-76
2023/06/22 06:37:44;;;;;;;12.23;9.38;;;;;;;26.74;49.36;101483.41;5050375;28;20384;-74
2023/06/22 06:40:11;;;;;;;10.68;8.40;;;;;;;27.07;49.66;101487.72;5050013;28;20381;-75
2023/06/22 06:42:45;;;;;;;10.85;8.85;;;;;;;27.45;48.51;101468.63;5048387;28;20955;-74
2023/06/22 06:45:12;;;;;;;11.05;9.23;;;;;;;27.61;47.97;101472.25;5048094;28;20845;-75
2023/06/22 06:47:39;;;;;;;16.08;9.05;;;;;;;27.77;47.88;101471.22;5048512;28;20880;-75
2023/06/22 06:50:05;;;;;;;13.98;8.63;;;;;;;28.00;47.06;101475.41;5048727;28;20424;-75
2023/06/22 06:52:31;;;;;;;12.83;9.37;;;;;;;28.12;47.07;101479.78;5048866;28;20404;-75
2023/06/22 06:54:56;;;;;;;12.98;9.13;;;;;;;28.15;46.82;101479.25;5048527;28;20379;-75
2023/06/22 06:57:22;;;;;;;12.13;9.00;;;;;;;28.18;46.69;101484.13;5049295;28;20427;-74
2023/06/22 06:59:48;;;;;;;11.77;9.10;;;;;;;28.37;46.63;101501.63;5048404;28;20384;-74
2023/06/22 07:02:15;;;;;;;11.73;9.35;;;;;;;28.56;45.80;101506.59;5031581;28;20694;-75
2023/06/22 07:04:40;;;;;;;10.70;9.02;;;;;;;28.50;46.03;101500.28;5050034;28;20423;-75
2023/06/22 07:07:06;;;;;;;12.27;9.52;;;;;;;28.44;45.71;101506.00;5049477;28;20431;-75
2023/06/22 07:09:32;;;;;;;11.13;8.93;;;;;;;28.58;45.10;101499.78;5049191;28;20386;-77
2023/06/22 07:11:57;;;;;;;12.50;9.37;;;;;;;28.56;44.76;101495.69;5049223;28;20404;-76
2023/06/22 07:14:23;;;;;;;10.55;9.45;;;;;;;28.35;45.49;101498.34;5052569;28;20376;-74
2023/06/22 07:16:48;;;;;;;9.85;8.40;;;;;;;28.31;45.50;101502.72;5053032;28;20392;-75
2023/06/22 07:19:14;;;;;;;12.67;9.10;;;;;;;28.05;45.44;101503.75;5052438;28;20381;-74
2023/06/22 07:21:39;;;;;;;12.43;9.00;;;;;;;27.97;45.44;101505.91;5041634;28;20451;-76
2023/06/22 07:24:06;;;;;;;12.52;8.65;;;;;;;28.03;45.51;101507.56;5042148;28;20388;-77
2023/06/22 07:26:32;;;;;;;10.68;8.77;;;;;;;28.08;45.16;101509.47;5052021;28;20742;-75
2023/06/22 07:28:57;;;;;;;11.30;8.63;;;;;;;28.16;44.52;101508.13;5051657;28;20391;-74
2023/06/22 07:31:26;;;;;;;9.53;8.47;;;;;;;28.03;44.98;101515.72;5052485;28;20387;-74
2023/06/22 07:33:52;;;;;;;9.73;8.23;;;;;;;28.07;45.20;101507.03;5051874;28;20385;-75
2023/06/22 07:36:18;;;;;;;11.07;9.07;;;;;;;28.14;44.70;101502.94;5051457;28;20438;-76
2023/06/22 07:38:43;;;;;;;10.25;8.80;;;;;;;27.98;45.01;101502.09;5062893;28;20378;-75
2023/06/22 07:41:09;;;;;;;11.47;9.40;;;;;;;28.14;44.71;101485.78;5050190;28;20452;-75
2023/06/22 07:43:36;;;;;;;9.77;8.63;;;;;;;28.16;44.34;101486.31;5034858;28;20387;-75
2023/06/22 07:46:03;;;;;;;10.60;8.37;;;;;;;28.28;44.69;101477.91;5048895;28;20399;-75
2023/06/22 07:48:29;;;;;;;10.23;9.13;;;;;;;28.46;44.51;101479.28;5032729;28;20396;-76
2023/06/22 07:50:55;;;;;;;10.63;8.40;;;;;;;28.65;43.91;101474.97;5047062;28;20402;-75
2023/06/22 07:53:21;;;;;;;9.60;8.60;;;;;;;28.63;43.98;101466.25;5044921;28;20394;-77
2023/06/22 07:55:49;;;;;;;11.85;8.80;;;;;;;28.82;44.43;101479.31;5047555;28;20448;-75
2023/06/22 07:58:15;;;;;;;11.25;9.60;;;;;;;29.03;43.98;101475.47;5047878;28;20796;-76
2023/06/22 08:00:41;;;;;;;12.32;8.73;;;;;;;29.36;43.81;101489.59;5050973;28;20934;-76
2023/06/22 08:03:07;;;;;;;12.73;9.02;;;;;;;29.49;43.56;101488.19;5046403;28;20879;-75
2023/06/22 08:05:32;;;;;;;10.95;9.52;;;;;;;29.58;43.52;101472.03;5035183;28;20380;-75
2023/06/22 08:07:58;;;;;;;10.10;8.70;;;;;;;29.77;42.92;101469.53;5049354;28;20398;-76
2023/06/22 08:10:23;;;;;;;15.43;9.30;;;;;;;30.00;42.42;101476.22;5042273;28;20463;-76
2023/06/22 08:12:49;;;;;;;13.98;9.27;;;;;;;30.18;42.29;101469.28;5061078;28;20403;-75
2023/06/22 08:15:15;;;;;;;13.17;9.10;;;;;;;30.23;41.94;101470.09;5067965;28;20367;-75
2023/06/22 08:17:40;;;;;;;11.03;8.90;;;;;;;30.45;41.84;101483.34;5067530;28;20410;-75
2023/06/22 08:20:11;;;;;;;10.82;9.02;;;;;;;30.58;41.15;101481.06;5067709;28;20941;-75
2023/06/22 08:22:37;;;;;;;13.10;8.82;;;;;;;30.53;41.36;101481.91;5067643;28;20371;-75
2023/06/22 08:25:03;;;;;;;11.57;8.60;;;;;;;30.64;41.06;101472.50;5046621;28;20385;-75
2023/06/22 08:27:31;;;;;;;9.70;8.70;;;;;;;30.57;41.44;101477.47;5030023;28;20412;-75
2023/06/22 08:29:58;;;;;;;9.45;8.23;;;;;;;30.72;41.14;101471.09;5029713;28;20378;-75
2023/06/22 08:32:26;;;;;;;10.95;8.98;;;;;;;30.48;41.17;101474.53;5029559;28;20486;-76
2023/06/22 08:34:55;;;;;;;14.32;9.18;;;;;;;30.52;41.23;101472.06;5030033;28;20374;-75
2023/06/22 08:37:23;;;;;;;12.55;9.00;;;;;;;30.61;41.45;101472.25;5029191;28;20863;-74
2023/06/22 08:39:50;;;;;;;9.63;8.70;;;;;;;30.87;40.43;101472.84;5030834;28;20398;-75
2023/06/22 08:42:16;;;;;;;12.68;8.65;;;;;;;30.93;40.43;101470.91;5030191;28;20379;-76
2023/06/22 08:44:41;;;;;;;11.37;9.37;;;;;;;30.79;40.76;101471.56;5029045;28;20723;-74
2023/06/22 08:47:07;;;;;;;11.30;9.40;;;;;;;30.68;40.84;101473.56;5030250;28;20875;-75
2023/06/22 08:49:32;;;;;;;10.68;8.90;;;;;;;30.67;40.88;101477.41;5030520;28;20996;-75
2023/06/22 08:51:58;;;;;;;11.13;9.40;;;;;;;30.72;40.90;101475.72;5029458;28;20501;-75
2023/06/22 08:54:23;;;;;;;10.43;8.63;;;;;;;30.88;40.42;101472.56;5030467;28;20386;-76
2023/06/22 08:56:49;;;;;;;9.67;8.67;;;;;;;30.80;40.64;101464.97;5030423;28;20378;-77
2023/06/22 08:59:14;;;;;;;13.53;9.03;;;;;;;30.92;40.83;101464.63;5030570;28;20412;-75
2023/06/22 09:01:40;;;;;;;12.23;8.67;;;;;;;30.92;40.60;101461.88;5029813;28;20382;-76
2023/06/22 09:04:07;;;;;;;15.20;9.30;;;;;;;30.86;40.75;101465.72;5029447;28;20370;-77
2023/06/22 09:06:32;;;;;;;10.65;8.68;;;;;;;30.90;40.64;101457.75;5030468;28;20370;-76
2023/06/22 09:09:00;;;;;;;12.43;9.00;;;;;;;30.88;40.64;101452.56;5030539;28;20435;-77
2023/06/22 09:11:26;;;;;;;10.48;8.32;;;;;;;30.93;40.68;101454.47;5029998;28;20897;-76
2023/06/22 09:13:53;;;;;;;9.93;8.87;;;;;;;31.03;40.42;101451.63;5029665;28;20397;-76
2023/06/22 09:16:19;;;;;;;12.23;9.20;;;;;;;30.84;40.50;101462.47;5029128;28;20865;-76
2023/06/22 09:18:48;;;;;;;13.60;8.57;;;;;;;30.97;40.76;101463.72;5028358;28;20442;-76
2023/06/22 09:21:13;;;;;;;14.60;8.70;;;;;;;31.15;40.67;101459.44;5028770;28;20448;-76
2023/06/22 09:23:39;;;;;;;12.20;8.63;;;;;;;31.24;40.66;101450.31;5029137;28;20374;-76
2023/06/22 09:26:04;;;;;;;11.23;8.80;;;;;;;31.37;40.22;101445.22;5029735;28;20473;-75
2023/06/22 09:28:30;;;;;;;11.50;8.40;;;;;;;31.53;40.23;101440.38;5028883;28;20374;-75
2023/06/22 09:30:58;;;;;;;9.50;8.53;;;;;;;31.66;39.67;101442.41;5029164;28;20378;-76
2023/06/22 09:33:24;;;;;;;9.65;8.70;;;;;;;31.73;39.56;101431.06;5029703;28;20410;-76
2023/06/22 09:35:50;;;;;;;10.70;9.02;;;;;;;31.75;39.47;101426.94;5028940;28;20371;-77
2023/06/22 09:38:17;;;;;;;13.00;8.57;;;;;;;31.76;39.69;101434.03;5029660;28;20851;-76
2023/06/22 09:40:43;;;;;;;10.02;9.00;;;;;;;31.61;40.07;101434.25;5030096;28;20544;-75
2023/06/22 09:43:08;;;;;;;15.20;9.50;;;;;;;31.70;40.09;101431.66;5028561;28;20405;-76
2023/06/22 09:45:34;;;;;;;13.53;8.80;;;;;;;31.74;40.04;101435.44;5028504;28;20378;-75
2023/06/22 09:47:59;;;;;;;15.90;8.90;;;;;;;31.61;39.77;101431.50;5028857;28;20393;-77
2023/06/22 09:50:25;;;;;;;10.88;8.88;;;;;;;31.61;40.15;101443.28;5029515;28;20387;-76
2023/06/22 09:52:54;;;;;;;17.00;9.07;;;;;;;31.68;40.07;101437.44;5030151;28;20957;-77
2023/06/22 09:55:20;;;;;;;10.63;8.27;;;;;;;31.80;39.80;101440.56;5030220;28;20402;-75
2023/06/22 09:57:46;;;;;;;11.43;9.27;;;;;;;31.98;40.04;101449.06;5028857;28;20394;-75
2023/06/22 10:00:13;;;;;;;10.70;8.65;;;;;;;32.00;39.43;101444.13;5029442;28;20389;-75
2023/06/22 10:02:39;;;;;;;12.65;9.27;;;;;;;31.89;39.78;101446.19;5028003;28;20377;-76
2023/06/22 10:05:05;;;;;;;16.15;8.75;;;;;;;31.88;39.66;101449.25;5029970;28;20456;-77
2023/06/22 10:07:31;;;;;;;12.73;9.17;;;;;;;31.99;40.38;101447.97;5029952;28;20398;-76
2023/06/22 10:09:56;;;;;;;12.17;9.27;;;;;;;32.19;39.94;101452.34;5028528;28;20394;-76
2023/06/22 10:12:22;;;;;;;12.77;8.75;;;;;;;32.14;39.97;101447.78;5029262;28;20907;-76
2023/06/22 10:14:47;;;;;;;12.30;8.60;;;;;;;32.19;39.74;101453.16;5029872;28;20379;-75
2023/06/22 10:17:13;;;;;;;12.30;9.05;;;;;;;32.38;39.36;101453.13;5028737;28;20512;-75
2023/06/22 10:19:38;;;;;;;12.30;8.93;;;;;;;32.40;38.84;101455.59;5029795;28;20383;-77
2023/06/22 10:22:05;;;;;;;9.82;8.52;;;;;;;32.40;38.73;101458.34;5027911;28;20367;-75
2023/06/22 10:24:33;;;;;;;9.03;7.67;;;;;;;32.37;38.86;101450.69;5010628;28;20425;-76
2023/06/22 10:26:58;;;;;;;9.93;7.97;;;;;;;32.36;39.04;101457.31;5028374;28;20394;-76
2023/06/22 10:29:25;;;;;;;13.73;8.82;;;;;;;32.42;38.80;101460.78;5028391;28;20402;-75
2023/06/22 10:31:51;;;;;;;10.17;7.97;;;;;;;32.78;38.31;101451.94;5028411;28;20414;-76
2023/06/22 10:34:16;;;;;;;11.63;8.15;;;;;;;32.75;38.01;101451.44;5028573;28;20400;-77
2023/06/22 10:36:42;;;;;;;8.77;7.97;;;;;;;32.61;38.39;101445.13;5031909;28;20375;-75
2023/06/22 10:39:07;;;;;;;12.73;8.23;;;;;;;32.67;38.75;101449.38;5028586;28;20414;-76
2023/06/22 10:41:33;;;;;;;12.50;7.90;;;;;;;32.67;38.10;101446.63;5028771;28;20370;-75
2023/06/22 10:43:58;;;;;;;15.27;7.87;;;;;;;32.57;38.07;101444.03;5028950;28;20394;-76
2023/06/22 10:46:25;;;;;;;11.97;7.90;;;;;;;32.67;37.49;101443.09;5029133;28;20882;-76
2023/06/22 10:48:54;;;;;;;11.52;7.63;;;;;;;32.63;37.31;101451.13;5028013;28;20388;-76
2023/06/22 10:51:19;;;;;;;12.60;7.57;;;;;;;32.53;37.51;101441.06;5028772;28;20389;-76
2023/06/22 10:53:45;;;;;;;8.77;6.97;;;;;;;32.58;37.45;101442.94;5027580;28;20414;-75
2023/06/22 10:56:10;;;;;;;8.70;7.50;;;;;;;32.55;37.61;101443.53;5026869;28;20421;-76
2023/06/22 10:58:36;;;;;;;11.87;7.60;;;;;;;32.52;38.05;101449.59;5010585;28;20811;-78
2023/06/22 11:01:02;;;;;;;9.73;7.20;;;;;;;32.58;37.55;101446.50;5027340;28;20390;-76
2023/06/22 11:03:28;;;;;;;9.65;7.45;;;;;;;32.51;36.98;101451.53;5027940;28;20385;-75
2023/06/22 11:05:53;;;;;;;11.03;7.40;;;;;;;32.39;37.25;101441.06;5028162;28;20382;-75
2023/06/22 11:08:19;;;;;;;8.70;7.43;;;;;;;32.33;37.48;101441.44;5028842;28;20386;-77
2023/06/22 11:10:44;;;;;;;13.57;7.70;;;;;;;32.27;37.48;101453.59;5028760;28;20812;-76
2023/06/22 11:13:10;;;;;;;9.50;7.60;;;;;;;32.11;37.96;101444.81;5028192;28;20405;-75
2023/06/22 11:15:38;;;;;;;12.83;7.90;;;;;;;32.06;38.13;101448.44;5027001;28;20735;-77